createdAt,value
2024-05-09T00:01:15.648Z,52.29
2024-05-09T00:11:22.238Z,52.66
2024-05-09T00:21:25.485Z,53.01
2024-05-09T00:31:28.892Z,53.27
2024-05-09T00:41:34.454Z,53.66
2024-05-09T00:51:41.608Z,53.94
2024-05-09T01:01:46.807Z,54.09
2024-05-09T01:11:50.176Z,54.39
2024-05-09T01:21:53.451Z,54.72
2024-05-09T01:31:59.332Z,54.74
2024-05-09T01:42:03.151Z,55.22
2024-05-09T01:52:06.593Z,55.58
2024-05-09T02:02:10.825Z,55.92
2024-05-09T02:12:16.529Z,56.19
2024-05-09T02:22:19.879Z,56.48
2024-05-09T02:32:23.001Z,56.81
2024-05-09T02:42:28.543Z,57.17
2024-05-09T02:52:31.598Z,57.78
2024-05-09T03:02:34.995Z,58.34
2024-05-09T03:12:39.404Z,58.79
2024-05-09T03:22:44.680Z,58.94
2024-05-09T03:32:48.027Z,59.28
2024-05-09T03:42:54.036Z,59.44
2024-05-09T03:52:57.506Z,59.48
2024-05-09T04:03:01.141Z,59.13
2024-05-09T04:13:05.270Z,58.57
2024-05-09T04:23:11.900Z,58.96
2024-05-09T04:33:15.963Z,49.69
2024-05-09T04:43:20.704Z,44.04
2024-05-09T04:53:24.034Z,45.66
2024-05-09T05:03:27.863Z,44.71
2024-05-09T05:13:32.081Z,37.22
2024-05-09T05:23:35.491Z,30.73
2024-05-09T05:33:39.144Z,27.22
2024-05-09T05:43:42.580Z,24.51
2024-05-09T05:53:45.996Z,22.16
2024-05-09T06:03:49.798Z,19.80
2024-05-09T06:13:53.290Z,18.12
2024-05-09T06:23:56.597Z,17.45
2024-05-09T06:33:59.762Z,15.96
2024-05-09T06:44:03.195Z,14.97
2024-05-09T06:54:07.899Z,13.91
2024-05-09T07:04:11.558Z,12.82
2024-05-09T07:14:14.857Z,12.27
2024-05-09T07:24:18.220Z,11.63
2024-05-09T07:34:21.847Z,11.77
2024-05-09T07:44:25.185Z,11.29
2024-05-09T07:54:28.642Z,11.01
2024-05-09T08:04:32.037Z,10.81
2024-05-09T08:14:35.259Z,12.01
2024-05-09T08:24:38.499Z,14.06
2024-05-09T08:34:41.641Z,15.90
2024-05-09T08:44:47.570Z,17.44
2024-05-09T08:54:50.853Z,19.07
2024-05-09T09:05:02.975Z,20.48
2024-05-09T09:15:07.103Z,22.12
2024-05-09T09:25:10.406Z,22.57
2024-05-09T09:35:13.947Z,22.57
2024-05-09T09:45:17.634Z,23.23
2024-05-09T09:55:24.262Z,23.69
2024-05-09T10:05:28.038Z,24.12
2024-05-09T10:15:42.048Z,24.53
2024-05-09T10:25:55.269Z,24.98
2024-05-09T10:36:03.495Z,25.30
2024-05-09T10:46:07.439Z,25.60
2024-05-09T10:56:13.016Z,25.53
2024-05-09T11:06:16.864Z,25.73
2024-05-09T11:16:22.160Z,25.87
2024-05-09T11:26:28.671Z,25.63
2024-05-09T11:36:31.878Z,25.55
2024-05-09T11:46:35.298Z,24.87
2024-05-09T11:56:38.467Z,24.79
2024-05-09T12:06:41.574Z,24.52
2024-05-09T12:16:44.762Z,24.50
2024-05-09T12:26:48.035Z,24.79
2024-05-09T12:36:51.244Z,25.17
2024-05-09T12:46:54.676Z,25.12
2024-05-09T12:56:57.797Z,25.23
2024-05-09T13:07:01.045Z,25.63
2024-05-09T13:17:05.408Z,26.26
2024-05-09T13:27:09.656Z,26.64
2024-05-09T13:37:15.094Z,27.04
2024-05-09T13:47:19.170Z,27.29
2024-05-09T13:57:22.310Z,27.67
2024-05-09T14:07:25.635Z,27.93
2024-05-09T14:17:28.796Z,28.20
2024-05-09T14:27:34.292Z,28.39
2024-05-09T14:37:39.681Z,28.59
2024-05-09T14:47:43.137Z,28.83
2024-05-09T14:57:46.982Z,29.09
2024-05-09T15:07:50.103Z,29.00
2024-05-09T15:17:54.302Z,28.91
2024-05-09T15:27:57.916Z,29.14
2024-05-09T15:38:02.340Z,29.09
2024-05-09T15:48:07.942Z,29.29
2024-05-09T15:58:11.579Z,29.48
2024-05-09T16:08:15.349Z,29.59
2024-05-09T16:18:18.958Z,29.52
2024-05-09T16:28:24.525Z,29.72
2024-05-09T16:38:27.852Z,29.87
2024-05-09T16:48:31.488Z,29.36
2024-05-09T16:58:35.042Z,30.00
2024-05-09T17:08:41.001Z,28.99
2024-05-09T17:18:45.511Z,29.39
2024-05-09T17:28:48.997Z,29.45
2024-05-09T17:38:52.171Z,29.27
2024-05-09T17:48:57.356Z,31.47
2024-05-09T17:59:01.960Z,33.19
2024-05-09T18:09:05.667Z,34.50
2024-05-09T18:19:09.423Z,35.44
2024-05-09T18:29:13.129Z,36.62
2024-05-09T18:39:17.327Z,37.83
2024-05-09T18:49:20.837Z,39.27
2024-05-09T18:59:24.367Z,40.51
2024-05-09T19:09:27.594Z,42.00
2024-05-09T19:19:31.219Z,43.44
2024-05-09T19:29:35.016Z,44.95
2024-05-09T19:39:38.414Z,45.70
2024-05-09T19:49:41.989Z,47.30
2024-05-09T19:59:45.426Z,48.25
2024-05-09T20:09:48.756Z,49.25
2024-05-09T20:19:52.316Z,50.13
2024-05-09T20:29:56.039Z,50.90
2024-05-09T20:39:59.268Z,51.75
2024-05-09T20:50:04.114Z,52.91
2024-05-09T21:00:18.275Z,53.74
2024-05-09T21:10:22.989Z,54.49
2024-05-09T21:30:41.220Z,56.35
2024-05-09T21:40:46.024Z,57.25
2024-05-09T21:50:51.764Z,58.03
2024-05-09T22:00:55.010Z,58.85
2024-05-09T22:10:58.470Z,59.54
2024-05-09T22:21:01.794Z,60.41
2024-05-09T22:31:05.680Z,61.23
2024-05-09T22:41:08.976Z,61.82
2024-05-09T22:51:13.051Z,62.33
2024-05-09T23:01:16.400Z,63.14
2024-05-09T23:11:19.554Z,64.02
2024-05-09T23:21:23.345Z,64.42
2024-05-09T23:31:26.903Z,64.96
2024-05-09T23:41:30.349Z,65.64
2024-05-09T23:51:33.713Z,66.15
